createdAt,value
2018-04-07T00:00:03.033Z,90.38
2018-04-07T00:01:03.229Z,89.62
2018-04-07T00:02:02.825Z,89.90
2018-04-07T00:03:02.722Z,89.62
2018-04-07T00:04:02.620Z,90.00
2018-04-07T00:05:02.515Z,90.28
2018-04-07T00:06:02.412Z,89.53
2018-04-07T00:07:02.310Z,90.19
2018-04-07T00:08:02.205Z,89.62
2018-04-07T00:09:02.102Z,90.66
2018-04-07T00:10:02.001Z,89.62
2018-04-07T00:11:01.896Z,89.72
2018-04-07T00:12:01.804Z,90.28
2018-04-07T00:13:01.689Z,90.28
2018-04-07T00:14:01.587Z,90.09
2018-04-07T00:15:01.483Z,90.09
2018-04-07T00:16:01.386Z,90.28
2018-04-07T00:17:01.279Z,90.47
2018-04-07T00:18:01.174Z,89.53
2018-04-07T00:19:01.070Z,90.28
2018-04-07T00:20:00.967Z,89.81
2018-04-07T00:21:00.863Z,90.19
2018-04-07T00:22:00.760Z,90.00
2018-04-07T00:23:00.656Z,90.38
2018-04-07T00:24:00.553Z,90.09
2018-04-07T00:25:00.449Z,90.66
2018-04-07T00:26:00.346Z,90.76
2018-04-07T00:27:00.243Z,90.57
2018-04-07T00:28:00.145Z,90.00
2018-04-07T00:29:00.036Z,90.47
2018-04-07T00:29:59.933Z,90.76
2018-04-07T00:31:00.080Z,90.38
2018-04-07T00:31:59.727Z,90.28
2018-04-07T00:32:59.623Z,90.19
2018-04-07T00:33:59.520Z,90.47
2018-04-07T00:34:59.416Z,90.28
2018-04-07T00:35:59.314Z,90.19
2018-04-07T00:36:59.210Z,90.09
2018-04-07T00:37:59.106Z,90.66
2018-04-07T00:38:59.002Z,90.57
2018-04-07T00:39:58.900Z,90.57
2018-04-07T00:40:59.097Z,90.76
2018-04-07T00:41:58.692Z,90.66
2018-04-07T00:42:58.589Z,90.19
2018-04-07T00:43:58.487Z,90.47
2018-04-07T00:44:58.383Z,90.38
2018-04-07T00:45:58.279Z,90.28
2018-04-07T00:46:58.180Z,90.38
2018-04-07T00:47:58.072Z,90.28
2018-04-07T00:48:57.969Z,90.19
2018-04-07T00:49:57.866Z,90.38
2018-04-07T00:50:57.762Z,90.28
2018-04-07T00:51:57.660Z,90.19
2018-04-07T00:52:57.555Z,90.57
2018-04-07T00:53:57.452Z,90.38
2018-04-07T00:54:57.350Z,90.66
2018-04-07T00:55:57.247Z,90.28
2018-04-07T00:56:57.142Z,90.28
2018-04-07T00:57:57.044Z,90.28
2018-04-07T00:58:56.937Z,90.57
2018-04-07T00:59:56.833Z,89.90
2018-04-07T01:00:56.730Z,89.81
2018-04-07T01:01:56.626Z,90.00
2018-04-07T01:02:56.523Z,90.47
2018-04-07T01:03:56.423Z,90.19
2018-04-07T01:04:56.317Z,90.66
2018-04-07T01:05:56.213Z,90.38
2018-04-07T01:06:56.110Z,90.09
2018-04-07T01:07:56.006Z,90.19
2018-04-07T01:08:55.903Z,90.38
2018-04-07T01:09:55.800Z,90.47
2018-04-07T01:10:55.697Z,90.28
2018-04-07T01:11:55.593Z,90.57
2018-04-07T01:12:55.491Z,90.43
2018-04-07T01:13:55.386Z,90.38
2018-04-07T01:14:55.284Z,90.47
2018-04-07T01:15:55.184Z,90.57
2018-04-07T01:16:55.076Z,90.19
2018-04-07T01:17:54.973Z,90.66
2018-04-07T01:18:54.872Z,90.19
2018-04-07T01:19:54.767Z,90.62
2018-04-07T01:20:54.664Z,90.28
2018-04-07T01:21:54.560Z,90.47
2018-04-07T01:22:54.456Z,90.47
2018-04-07T01:23:54.353Z,90.19
2018-04-07T01:24:54.249Z,90.47
2018-04-07T01:25:54.146Z,90.19
2018-04-07T01:26:54.044Z,89.90
2018-04-07T01:27:53.940Z,90.09
2018-04-07T01:28:53.837Z,89.53
2018-04-07T01:29:53.733Z,89.90
2018-04-07T01:30:53.930Z,89.62
2018-04-07T01:31:53.527Z,90.28
2018-04-07T01:32:53.424Z,89.81
2018-04-07T01:33:53.321Z,90.09
2018-04-07T01:34:53.216Z,89.81
2018-04-07T01:35:53.119Z,89.24
2018-04-07T01:36:53.010Z,89.14
2018-04-07T01:37:52.909Z,88.57
2018-04-07T01:38:52.804Z,89.24
2018-04-07T01:39:52.699Z,88.95
2018-04-07T01:40:52.596Z,89.24
2018-04-07T01:41:52.492Z,89.43
2018-04-07T01:42:52.390Z,89.53
2018-04-07T01:43:52.289Z,89.24
2018-04-07T01:44:52.183Z,89.33
2018-04-07T01:45:52.079Z,89.33
2018-04-07T01:46:51.977Z,89.24
2018-04-07T01:47:51.873Z,89.53
2018-04-07T01:48:51.770Z,89.62
2018-04-07T01:49:51.667Z,89.33
2018-04-07T01:50:51.564Z,89.14
2018-04-07T01:51:51.461Z,89.72
2018-04-07T01:52:51.359Z,89.81
2018-04-07T01:53:51.253Z,89.72
2018-04-07T01:54:51.150Z,89.58
2018-04-07T01:55:51.047Z,90.19
2018-04-07T01:56:50.944Z,89.62
2018-04-07T01:57:50.840Z,89.86
2018-04-07T01:58:50.737Z,90.43
2018-04-07T01:59:50.633Z,90.05
2018-04-07T02:00:50.830Z,90.05
2018-04-07T02:01:50.427Z,90.24
2018-04-07T02:02:50.323Z,90.09
2018-04-07T02:03:50.223Z,90.43
2018-04-07T02:04:50.116Z,90.14
2018-04-07T02:05:50.014Z,90.14
2018-04-07T02:06:49.911Z,90.14
2018-04-07T02:07:49.807Z,90.43
2018-04-07T02:08:49.704Z,90.24
2018-04-07T02:09:49.601Z,90.24
2018-04-07T02:10:49.485Z,90.33
2018-04-07T02:11:49.383Z,90.52
2018-04-07T02:12:49.278Z,91.09
2018-04-07T02:13:49.178Z,90.62
2018-04-07T02:14:49.073Z,90.62
2018-04-07T02:15:48.967Z,90.90
2018-04-07T02:16:48.864Z,90.90
2018-04-07T02:17:48.762Z,90.81
2018-04-07T02:18:48.658Z,91.19
2018-04-07T02:19:48.554Z,91.09
2018-04-07T02:20:48.450Z,91.00
2018-04-07T02:21:48.347Z,91.56
2018-04-07T02:22:48.257Z,91.09
2018-04-07T02:23:48.141Z,91.28
2018-04-07T02:24:48.037Z,91.28
2018-04-07T02:25:47.933Z,91.00
2018-04-07T02:26:47.830Z,91.19
2018-04-07T02:27:47.727Z,91.56
2018-04-07T02:28:47.623Z,91.00
2018-04-07T02:29:47.522Z,91.38
2018-04-07T02:30:47.417Z,91.38
2018-04-07T02:31:47.323Z,91.28
2018-04-07T02:32:47.217Z,91.47
2018-04-07T02:33:47.107Z,91.19
2018-04-07T02:34:47.003Z,91.00
2018-04-07T02:35:46.914Z,90.81
2018-04-07T02:36:46.797Z,91.47
2018-04-07T02:37:46.695Z,90.90
2018-04-07T02:38:46.592Z,91.19
2018-04-07T02:39:46.489Z,91.00
2018-04-07T02:40:46.384Z,91.28
2018-04-07T02:41:46.287Z,90.81
2018-04-07T02:42:46.178Z,90.81
2018-04-07T02:43:46.074Z,91.19
2018-04-07T02:44:45.971Z,90.81
2018-04-07T02:45:45.867Z,91.47
2018-04-07T02:46:45.765Z,90.81
2018-04-07T02:47:45.661Z,91.47
2018-04-07T02:48:45.558Z,91.00
2018-04-07T02:49:45.454Z,90.90
2018-04-07T02:50:45.350Z,91.09
2018-04-07T02:51:45.247Z,90.81
2018-04-07T02:52:45.144Z,91.28
2018-04-07T02:53:45.040Z,91.09
2018-04-07T02:54:44.939Z,91.00
2018-04-07T02:55:44.847Z,91.28
2018-04-07T02:56:44.730Z,91.00
2018-04-07T02:57:44.636Z,90.90
2018-04-07T02:58:44.525Z,91.00
2018-04-07T02:59:44.421Z,91.09
2018-04-07T03:00:44.307Z,91.00
2018-04-07T03:01:44.203Z,91.19
2018-04-07T03:02:44.100Z,91.00
2018-04-07T03:03:43.998Z,90.52
2018-04-07T03:04:43.904Z,90.62
2018-04-07T03:05:44.088Z,91.19
2018-04-07T03:06:43.686Z,91.09
2018-04-07T03:07:43.583Z,91.19
2018-04-07T03:08:43.479Z,91.19
2018-04-07T03:09:43.378Z,90.90
2018-04-07T03:10:43.272Z,91.00
2018-04-07T03:11:43.170Z,90.81
2018-04-07T03:12:43.065Z,91.00
2018-04-07T03:13:42.963Z,90.90
2018-04-07T03:14:42.860Z,91.00
2018-04-07T03:15:42.756Z,90.71
2018-04-07T03:16:42.651Z,90.52
2018-04-07T03:17:42.549Z,91.00
2018-04-07T03:18:42.446Z,90.90
2018-04-07T03:19:42.342Z,90.90
2018-04-07T03:20:42.243Z,91.09
2018-04-07T03:21:42.136Z,91.00
2018-04-07T03:22:42.032Z,90.90
2018-04-07T03:23:41.928Z,90.81
2018-04-07T03:24:41.825Z,91.28
2018-04-07T03:25:41.725Z,91.09
2018-04-07T03:26:41.619Z,90.81
2018-04-07T03:27:41.516Z,90.81
2018-04-07T03:28:41.413Z,90.90
2018-04-07T03:29:41.309Z,91.09
2018-04-07T03:30:41.194Z,90.90
2018-04-07T03:31:41.091Z,91.09
2018-04-07T03:32:40.987Z,90.81
2018-04-07T03:33:40.884Z,90.71
2018-04-07T03:34:40.792Z,90.81
2018-04-07T03:35:40.677Z,90.52
2018-04-07T03:36:40.574Z,90.71
2018-04-07T03:37:40.472Z,90.81
2018-04-07T03:38:40.366Z,89.86
2018-04-07T03:39:40.262Z,90.62
2018-04-07T03:40:40.162Z,90.62
2018-04-07T03:41:40.056Z,91.19
2018-04-07T03:42:39.952Z,90.43
2018-04-07T03:43:39.851Z,91.09
2018-04-07T03:44:39.746Z,90.62
2018-04-07T03:45:39.643Z,90.14
2018-04-07T03:46:39.539Z,90.43
2018-04-07T03:47:39.436Z,90.71
2018-04-07T03:48:39.332Z,90.24
2018-04-07T03:49:39.231Z,90.81
2018-04-07T03:50:39.141Z,91.00
2018-04-07T03:51:39.025Z,90.52
2018-04-07T03:52:38.919Z,91.00
2018-04-07T03:53:38.816Z,90.90
2018-04-07T03:54:38.713Z,90.81
2018-04-07T03:55:38.609Z,90.33
2018-04-07T03:56:38.506Z,90.05
2018-04-07T03:57:38.403Z,91.00
2018-04-07T03:58:38.299Z,90.43
2018-04-07T03:59:38.196Z,90.62
2018-04-07T04:00:38.093Z,90.14
2018-04-07T04:01:37.989Z,90.33
2018-04-07T04:02:37.875Z,90.24
2018-04-07T04:03:37.774Z,90.43
2018-04-07T04:04:37.668Z,90.62
2018-04-07T04:05:37.865Z,90.62
2018-04-07T04:06:37.460Z,90.81
2018-04-07T04:07:37.357Z,90.05
2018-04-07T04:08:37.254Z,90.14
2018-04-07T04:09:37.151Z,90.14
2018-04-07T04:10:37.048Z,90.24
2018-04-07T04:11:36.944Z,89.76
2018-04-07T04:12:36.841Z,89.58
2018-04-07T04:13:36.741Z,89.39
2018-04-07T04:14:36.635Z,89.86
2018-04-07T04:15:36.531Z,89.76
2018-04-07T04:16:36.428Z,89.48
2018-04-07T04:17:36.324Z,89.95
2018-04-07T04:18:36.221Z,90.24
2018-04-07T04:19:36.122Z,89.95
2018-04-07T04:20:36.014Z,90.52
2018-04-07T04:21:35.911Z,89.39
2018-04-07T04:22:35.812Z,89.00
2018-04-07T04:23:35.705Z,89.29
2018-04-07T04:24:35.601Z,89.48
2018-04-07T04:25:35.497Z,88.72
2018-04-07T04:26:35.395Z,89.39
2018-04-07T04:27:35.292Z,89.39
2018-04-07T04:28:35.189Z,89.20
2018-04-07T04:29:35.094Z,89.29
2018-04-07T04:30:34.969Z,88.53
2018-04-07T04:31:34.867Z,88.34
2018-04-07T04:32:34.762Z,88.24
2018-04-07T04:33:34.658Z,88.91
2018-04-07T04:34:34.555Z,88.62
2018-04-07T04:35:34.452Z,88.53
2018-04-07T04:36:34.348Z,88.24
2018-04-07T04:37:34.245Z,87.62
2018-04-07T04:38:34.141Z,87.68
2018-04-07T04:39:34.038Z,87.87
2018-04-07T04:40:33.934Z,87.72
2018-04-07T04:41:33.831Z,87.34
2018-04-07T04:42:33.745Z,86.96
2018-04-07T04:43:33.624Z,86.20
2018-04-07T04:44:33.521Z,85.82
2018-04-07T04:45:33.417Z,85.16
2018-04-07T04:46:33.314Z,84.87
2018-04-07T04:47:33.211Z,84.40
2018-04-07T04:48:33.109Z,84.30
2018-04-07T04:49:33.004Z,84.30
2018-04-07T04:50:32.901Z,84.49
2018-04-07T04:51:32.798Z,82.97
2018-04-07T04:52:32.694Z,81.68
2018-04-07T04:53:32.591Z,81.21
2018-04-07T04:54:32.501Z,79.69
2018-04-07T04:55:32.384Z,79.31
2018-04-07T04:56:32.281Z,78.45
2018-04-07T04:57:32.177Z,78.74
2018-04-07T04:58:32.075Z,77.70
2018-04-07T04:59:31.971Z,77.51
2018-04-07T05:00:32.167Z,77.07
2018-04-07T05:01:31.764Z,76.03
2018-04-07T05:02:31.661Z,74.41
2018-04-07T05:03:31.558Z,73.08
2018-04-07T05:04:31.457Z,73.18
2018-04-07T05:05:31.364Z,72.13
2018-04-07T05:06:31.264Z,71.31
2018-04-07T05:07:31.159Z,70.74
2018-04-07T05:08:31.054Z,70.74
2018-04-07T05:09:30.952Z,69.56
2018-04-07T05:10:30.848Z,69.02
2018-04-07T05:11:30.745Z,67.98
2018-04-07T05:12:30.642Z,67.60
2018-04-07T05:13:30.538Z,66.94
2018-04-07T05:14:30.436Z,66.65
2018-04-07T05:15:30.343Z,66.59
2018-04-07T05:16:30.239Z,65.45
2018-04-07T05:17:30.137Z,65.35
2018-04-07T05:18:30.033Z,65.22
2018-04-07T05:19:29.930Z,66.36
2018-04-07T05:20:30.128Z,67.79
2018-04-07T05:21:29.736Z,67.32
2018-04-07T05:22:29.621Z,66.65
2018-04-07T05:23:29.530Z,66.30
2018-04-07T05:24:29.429Z,65.35
2018-04-07T05:25:29.323Z,64.21
2018-04-07T05:26:29.225Z,62.97
2018-04-07T05:27:29.119Z,63.07
2018-04-07T05:28:29.027Z,63.26
2018-04-07T05:29:28.921Z,62.97
2018-04-07T05:30:28.818Z,64.18
2018-04-07T05:31:28.715Z,64.08
2018-04-07T05:32:28.611Z,64.59
2018-04-07T05:33:28.523Z,64.94
2018-04-07T05:34:28.423Z,65.13
2018-04-07T05:35:28.316Z,66.17
2018-04-07T05:36:28.211Z,66.08
2018-04-07T05:37:28.109Z,65.22
2018-04-07T05:38:28.020Z,65.35
2018-04-07T05:39:27.915Z,63.92
2018-04-07T05:40:27.810Z,63.26
2018-04-07T05:41:27.706Z,61.55
2018-04-07T05:42:27.603Z,60.24
2018-04-07T05:43:27.513Z,59.83
2018-04-07T05:44:27.409Z,60.60
2018-04-07T05:45:27.307Z,60.69
2018-04-07T05:46:27.203Z,60.44
2018-04-07T05:47:27.113Z,59.77
2018-04-07T05:48:27.008Z,59.01
2018-04-07T05:49:26.905Z,58.44
2018-04-07T05:50:26.815Z,57.96
2018-04-07T05:51:26.700Z,57.32
2018-04-07T05:52:26.610Z,56.56
2018-04-07T05:53:26.504Z,55.80
2018-04-07T05:54:26.406Z,56.34
2018-04-07T05:55:26.310Z,57.20
2018-04-07T05:56:26.220Z,56.56
2018-04-07T05:57:26.104Z,55.99
2018-04-07T05:58:26.005Z,55.70
2018-04-07T05:59:25.909Z,55.80
2018-04-07T06:00:25.807Z,55.80
2018-04-07T06:01:25.704Z,55.51
2018-04-07T06:02:25.615Z,55.42
2018-04-07T06:03:25.522Z,54.94
2018-04-07T06:04:25.405Z,55.16
2018-04-07T06:05:25.315Z,53.28
2018-04-07T06:06:25.212Z,51.85
2018-04-07T06:07:25.109Z,50.90
2018-04-07T06:08:25.016Z,51.28
2018-04-07T06:09:24.913Z,51.45
2018-04-07T06:10:24.823Z,51.54
2018-04-07T06:11:24.720Z,52.78
2018-04-07T06:12:24.617Z,52.90
2018-04-07T06:13:24.513Z,52.20
2018-04-07T06:14:24.421Z,52.30
2018-04-07T06:15:24.319Z,51.85
2018-04-07T06:16:24.230Z,52.23
2018-04-07T06:17:24.125Z,51.28
2018-04-07T06:18:24.022Z,50.71
2018-04-07T06:19:23.930Z,50.61
2018-04-07T06:20:23.827Z,49.40
2018-04-07T06:21:23.736Z,49.68
2018-04-07T06:22:23.633Z,49.76
2018-04-07T06:23:23.530Z,50.71
2018-04-07T06:24:23.441Z,50.04
2018-04-07T06:25:23.336Z,50.32
2018-04-07T06:26:23.245Z,50.52
2018-04-07T06:27:23.144Z,49.66
2018-04-07T06:28:23.052Z,50.54
2018-04-07T06:29:22.948Z,50.13
2018-04-07T06:30:23.094Z,49.66
2018-04-07T06:31:22.754Z,50.61
2018-04-07T06:32:22.650Z,50.32
2018-04-07T06:33:22.558Z,50.87
2018-04-07T06:34:22.455Z,51.73
2018-04-07T06:35:22.367Z,52.11
2018-04-07T06:36:22.264Z,52.30
2018-04-07T06:37:22.170Z,52.37
2018-04-07T06:38:22.067Z,52.84
2018-04-07T06:39:21.964Z,53.70
2018-04-07T06:40:22.179Z,53.61
2018-04-07T06:41:21.769Z,53.52
2018-04-07T06:42:21.680Z,53.42
2018-04-07T06:43:21.575Z,53.70
2018-04-07T06:44:21.485Z,54.37
2018-04-07T06:45:21.382Z,54.56
2018-04-07T06:46:21.290Z,55.04
2018-04-07T06:47:21.187Z,55.29
2018-04-07T06:48:21.085Z,55.80
2018-04-07T06:49:20.993Z,55.04
2018-04-07T06:50:20.889Z,54.02
2018-04-07T06:51:20.799Z,52.78
2018-04-07T06:52:20.695Z,51.82
2018-04-07T06:53:20.594Z,50.80
2018-04-07T06:54:20.502Z,50.61
2018-04-07T06:55:20.399Z,50.54
2018-04-07T06:56:20.306Z,49.11
2018-04-07T06:57:20.204Z,48.35
2018-04-07T06:58:20.102Z,47.87
2018-04-07T06:59:20.014Z,47.52
2018-04-07T07:00:20.156Z,47.03
2018-04-07T07:01:19.815Z,46.20
2018-04-07T07:02:19.712Z,45.65
2018-04-07T07:03:19.622Z,44.87
2018-04-07T07:04:19.518Z,45.32
2018-04-07T07:05:19.427Z,45.53
2018-04-07T07:06:19.324Z,45.15
2018-04-07T07:07:19.234Z,44.29
2018-04-07T07:08:19.129Z,44.87
2018-04-07T07:09:19.038Z,44.98
2018-04-07T07:10:18.936Z,44.79
2018-04-07T07:11:18.846Z,44.38
2018-04-07T07:12:18.742Z,44.60
2018-04-07T07:13:18.651Z,43.84
2018-04-07T07:14:18.549Z,43.74
2018-04-07T07:15:18.456Z,43.26
2018-04-07T07:16:18.365Z,43.07
2018-04-07T07:17:18.263Z,43.24
2018-04-07T07:18:18.186Z,44.01
2018-04-07T07:19:18.068Z,44.27
2018-04-07T07:20:17.977Z,45.70
2018-04-07T07:21:17.888Z,45.87
2018-04-07T07:22:17.784Z,46.32
2018-04-07T07:23:17.692Z,47.47
2018-04-07T07:24:17.595Z,49.08
2018-04-07T07:25:17.499Z,49.35
2018-04-07T07:26:17.396Z,49.35
2018-04-07T07:27:17.317Z,50.21
2018-04-07T07:28:17.203Z,50.78
2018-04-07T07:29:17.111Z,50.30
2018-04-07T07:30:17.010Z,50.11
2018-04-07T07:31:16.915Z,50.40
2018-04-07T07:32:16.811Z,50.11
2018-04-07T07:33:16.721Z,50.40
2018-04-07T07:34:16.621Z,51.35
2018-04-07T07:35:16.516Z,50.40
2018-04-07T07:36:16.426Z,51.35
2018-04-07T07:37:16.324Z,49.16
2018-04-07T07:38:16.230Z,48.87
2018-04-07T07:39:16.128Z,49.16
2018-04-07T07:40:16.035Z,48.11
2018-04-07T07:41:15.931Z,47.82
2018-04-07T07:42:15.828Z,47.82
2018-04-07T07:43:15.739Z,47.63
2018-04-07T07:44:15.636Z,47.92
2018-04-07T07:45:15.543Z,47.92
2018-04-07T07:46:15.440Z,47.44
2018-04-07T07:47:15.336Z,48.04
2018-04-07T07:48:15.250Z,47.94
2018-04-07T07:49:15.143Z,47.18
2018-04-07T07:50:15.041Z,46.99
2018-04-07T07:51:14.950Z,46.89
2018-04-07T07:52:14.846Z,46.89
2018-04-07T07:53:14.756Z,46.80
2018-04-07T07:54:14.651Z,46.61
2018-04-07T07:55:14.548Z,46.32
2018-04-07T07:56:14.470Z,46.13
2018-04-07T07:57:14.354Z,45.56
2018-04-07T07:58:14.252Z,44.99
2018-04-07T07:59:14.163Z,44.04
2018-04-07T08:00:14.058Z,44.04
2018-04-07T08:01:13.955Z,44.89
2018-04-07T08:02:13.867Z,45.39
2018-04-07T08:03:13.764Z,45.49
2018-04-07T08:04:13.658Z,45.49
2018-04-07T08:05:13.566Z,45.01
2018-04-07T08:06:13.466Z,44.25
2018-04-07T08:07:13.370Z,43.10
2018-04-07T08:08:13.268Z,42.82
2018-04-07T08:09:13.181Z,42.72
2018-04-07T08:10:13.073Z,43.10
2018-04-07T08:11:12.971Z,43.29
2018-04-07T08:12:12.868Z,42.63
2018-04-07T08:13:12.775Z,41.77
2018-04-07T08:14:12.672Z,42.34
2018-04-07T08:15:12.571Z,42.63
2018-04-07T08:16:12.479Z,42.44
2018-04-07T08:17:12.376Z,42.05
2018-04-07T08:18:12.284Z,42.44
2018-04-07T08:19:12.181Z,41.86
2018-04-07T08:20:12.078Z,41.48
2018-04-07T08:21:11.987Z,41.58
2018-04-07T08:22:11.885Z,41.10
2018-04-07T08:23:11.792Z,41.31
2018-04-07T08:24:11.689Z,41.41
2018-04-07T08:25:11.593Z,41.12
2018-04-07T08:26:11.499Z,40.81
2018-04-07T08:27:11.393Z,40.26
2018-04-07T08:28:11.289Z,39.98
2018-04-07T08:29:11.198Z,40.93
2018-04-07T08:30:11.097Z,40.74
2018-04-07T08:31:11.004Z,40.36
2018-04-07T08:32:10.911Z,39.69
2018-04-07T08:33:10.798Z,39.69
2018-04-07T08:34:10.705Z,39.78
2018-04-07T08:35:10.602Z,40.36
2018-04-07T08:36:10.517Z,39.78
2018-04-07T08:37:14.776Z,40.07
2018-04-07T08:38:10.306Z,39.78
2018-04-07T08:39:10.214Z,39.59
2018-04-07T08:40:10.111Z,39.22
2018-04-07T08:41:10.021Z,40.19
2018-04-07T08:42:09.917Z,39.90
2018-04-07T08:43:09.814Z,40.00
2018-04-07T08:44:09.723Z,39.14
2018-04-07T08:45:09.625Z,40.00
2018-04-07T08:46:09.529Z,39.14
2018-04-07T08:47:09.426Z,39.04
2018-04-07T08:48:09.323Z,39.14
2018-04-07T08:49:09.230Z,40.09
2018-04-07T08:50:09.128Z,39.81
2018-04-07T08:51:09.045Z,39.14
2018-04-07T08:52:08.935Z,38.56
2018-04-07T08:53:08.831Z,38.47
2018-04-07T08:54:08.739Z,38.56
2018-04-07T08:55:08.639Z,38.66
2018-04-07T08:56:08.547Z,38.09
2018-04-07T08:57:08.442Z,38.28
2018-04-07T08:58:08.350Z,37.99
2018-04-07T08:59:08.250Z,37.61
2018-04-07T09:00:08.157Z,37.42
2018-04-07T09:01:08.055Z,37.32
2018-04-07T09:02:07.951Z,37.99
2018-04-07T09:03:07.860Z,37.99
2018-04-07T09:04:07.756Z,37.71
2018-04-07T09:05:07.658Z,38.28
2018-04-07T09:06:07.567Z,37.80
2018-04-07T09:07:07.459Z,38.01
2018-04-07T09:08:07.367Z,38.68
2018-04-07T09:09:07.265Z,37.73
2018-04-07T09:10:07.176Z,37.73
2018-04-07T09:11:07.071Z,37.44
2018-04-07T09:12:06.979Z,37.23
2018-04-07T09:13:06.876Z,37.24
2018-04-07T09:14:06.773Z,37.53
2018-04-07T09:15:06.684Z,38.01
2018-04-07T09:16:06.579Z,37.73
2018-04-07T09:17:06.487Z,38.10
2018-04-07T09:18:06.384Z,37.92
2018-04-07T09:19:06.294Z,37.53
2018-04-07T09:20:06.190Z,37.82
2018-04-07T09:21:06.087Z,37.82
2018-04-07T09:22:05.997Z,38.01
2018-04-07T09:23:05.892Z,38.78
2018-04-07T09:24:05.804Z,38.70
2018-04-07T09:25:05.699Z,37.84
2018-04-07T09:26:05.617Z,37.26
2018-04-07T09:27:05.505Z,36.60
2018-04-07T09:28:05.417Z,37.07
2018-04-07T09:29:05.312Z,37.17
2018-04-07T09:30:05.210Z,37.07
2018-04-07T09:31:05.116Z,37.46
2018-04-07T09:32:05.014Z,37.26
2018-04-07T09:33:04.923Z,36.33
2018-04-07T09:34:04.821Z,35.77
2018-04-07T09:35:04.732Z,35.50
2018-04-07T09:36:04.625Z,34.83
2018-04-07T09:37:04.534Z,34.06
2018-04-07T09:38:04.432Z,33.86
2018-04-07T09:39:04.340Z,33.87
2018-04-07T09:40:04.235Z,33.67
2018-04-07T09:41:04.146Z,33.69
2018-04-07T09:42:04.090Z,33.57
2018-04-07T09:43:03.951Z,33.67
2018-04-07T09:44:03.848Z,34.34
2018-04-07T09:45:03.759Z,34.24
2018-04-07T09:46:03.655Z,34.34
2018-04-07T09:47:03.576Z,34.53
2018-04-07T09:48:03.462Z,34.93
2018-04-07T09:49:03.370Z,34.83
2018-04-07T09:50:03.278Z,35.00
2018-04-07T09:51:03.176Z,34.05
2018-04-07T09:52:03.084Z,33.76
2018-04-07T09:53:02.982Z,34.14
2018-04-07T09:54:02.890Z,34.24
2018-04-07T09:55:02.789Z,34.24
2018-04-07T09:56:02.700Z,34.32
2018-04-07T09:57:02.605Z,34.32
2018-04-07T09:58:02.504Z,34.22
2018-04-07T09:59:02.411Z,34.99
2018-04-07T10:00:02.309Z,34.61
2018-04-07T10:01:02.216Z,34.70
2018-04-07T10:02:02.115Z,35.29
2018-04-07T10:03:02.023Z,34.81
2018-04-07T10:04:01.935Z,35.39
2018-04-07T10:05:01.832Z,35.49
2018-04-07T10:06:01.740Z,35.86
2018-04-07T10:07:01.652Z,35.20
2018-04-07T10:08:01.544Z,34.64
2018-04-07T10:09:01.454Z,33.57
2018-04-07T10:10:01.356Z,33.67
2018-04-07T10:11:01.247Z,33.00
2018-04-07T10:12:01.155Z,33.00
2018-04-07T10:13:01.065Z,33.76
2018-04-07T10:14:00.962Z,34.26
2018-04-07T10:15:00.870Z,33.09
2018-04-07T10:16:00.772Z,32.81
2018-04-07T10:17:00.677Z,32.90
2018-04-07T10:18:00.574Z,32.71
2018-04-07T10:19:00.482Z,32.62
2018-04-07T10:20:00.392Z,32.82
2018-04-07T10:21:00.288Z,33.30
2018-04-07T10:22:00.197Z,32.82
2018-04-07T10:23:00.095Z,32.54
2018-04-07T10:24:00.004Z,32.93
2018-04-07T10:24:59.901Z,32.63
2018-04-07T10:25:59.808Z,32.44
2018-04-07T10:26:59.718Z,32.73
2018-04-07T10:27:59.615Z,32.93
2018-04-07T10:28:59.524Z,32.82
2018-04-07T10:29:59.420Z,32.55
2018-04-07T10:30:59.330Z,32.65
2018-04-07T10:31:59.239Z,31.40
2018-04-07T10:32:59.136Z,31.88
2018-04-07T10:33:59.045Z,32.75
2018-04-07T10:34:58.942Z,32.07
2018-04-07T10:35:58.850Z,31.40
2018-04-07T10:36:58.749Z,31.59
2018-04-07T10:37:58.657Z,31.69
2018-04-07T10:38:58.566Z,31.88
2018-04-07T10:39:58.712Z,31.98
2018-04-07T10:40:58.372Z,32.65
2018-04-07T10:41:58.273Z,31.98
2018-04-07T10:42:58.184Z,32.07
2018-04-07T10:43:58.088Z,31.88
2018-04-07T10:44:57.984Z,32.17
2018-04-07T10:45:57.893Z,32.65
2018-04-07T10:46:57.790Z,32.86
2018-04-07T10:47:57.699Z,33.24
2018-04-07T10:48:57.607Z,32.67
2018-04-07T10:49:57.503Z,31.99
2018-04-07T10:50:57.419Z,31.42
2018-04-07T10:51:57.312Z,30.46
2018-04-07T10:52:57.218Z,30.75
2018-04-07T10:53:57.129Z,31.04
2018-04-07T10:54:57.026Z,31.61
2018-04-07T10:55:56.934Z,31.50
2018-04-07T10:56:56.846Z,31.59
2018-04-07T10:57:56.741Z,32.38
2018-04-07T10:58:56.649Z,31.42
2018-04-07T10:59:56.846Z,31.42
2018-04-07T11:00:56.455Z,31.32
2018-04-07T11:01:56.363Z,31.90
2018-04-07T11:02:56.260Z,31.80
2018-04-07T11:03:56.170Z,31.42
2018-04-07T11:04:56.067Z,31.04
2018-04-07T11:05:55.988Z,31.71
2018-04-07T11:06:55.885Z,31.63
2018-04-07T11:07:55.786Z,32.59
2018-04-07T11:08:55.692Z,31.63
2018-04-07T11:09:55.589Z,31.43
2018-04-07T11:10:55.498Z,30.47
2018-04-07T11:11:55.408Z,30.38
2018-04-07T11:12:55.303Z,30.38
2018-04-07T11:13:55.212Z,30.47
2018-04-07T11:14:55.121Z,30.47
2018-04-07T11:15:55.021Z,31.43
2018-04-07T11:16:54.928Z,31.15
2018-04-07T11:17:54.839Z,31.63
2018-04-07T11:18:54.734Z,31.82
2018-04-07T11:19:54.892Z,30.47
2018-04-07T11:20:54.550Z,30.29
2018-04-07T11:21:54.450Z,30.38
2018-04-07T11:22:54.357Z,30.29
2018-04-07T11:23:54.266Z,31.82
2018-04-07T11:24:54.162Z,30.96
2018-04-07T11:25:54.075Z,31.05
2018-04-07T11:26:53.970Z,31.64
2018-04-07T11:27:53.877Z,31.07
2018-04-07T11:28:53.788Z,31.07
2018-04-07T11:29:53.688Z,31.16
2018-04-07T11:30:53.593Z,31.35
2018-04-07T11:31:53.502Z,31.93
2018-04-07T11:32:53.398Z,31.64
2018-04-07T11:33:53.309Z,30.97
2018-04-07T11:34:53.218Z,30.97
2018-04-07T11:35:53.115Z,31.74
2018-04-07T11:36:53.023Z,31.54
2018-04-07T11:37:52.932Z,31.45
2018-04-07T11:38:52.830Z,31.07
2018-04-07T11:39:52.987Z,30.49
2018-04-07T11:40:52.648Z,30.30
2018-04-07T11:41:52.544Z,30.97
2018-04-07T11:42:52.452Z,31.26
2018-04-07T11:43:52.362Z,31.74
2018-04-07T11:44:52.259Z,31.95
2018-04-07T11:45:52.167Z,31.85
2018-04-07T11:46:52.078Z,31.54
2018-04-07T11:47:51.985Z,31.66
2018-04-07T11:48:51.885Z,31.37
2018-04-07T11:49:51.792Z,31.95
2018-04-07T11:50:51.701Z,32.42
2018-04-07T11:51:51.598Z,31.85
2018-04-07T11:52:51.508Z,31.56
2018-04-07T11:53:51.415Z,31.56
2018-04-07T11:54:51.312Z,31.18
2018-04-07T11:55:51.222Z,31.66
2018-04-07T11:56:51.131Z,31.66
2018-04-07T11:57:51.027Z,31.18
2018-04-07T11:58:50.938Z,31.37
2018-04-07T11:59:51.146Z,31.75
2018-04-07T12:00:50.744Z,31.56
2018-04-07T12:01:50.652Z,31.08
2018-04-07T12:02:50.561Z,30.89
2018-04-07T12:03:50.480Z,31.67
2018-04-07T12:04:50.368Z,31.58
2018-04-07T12:05:50.275Z,30.33
2018-04-07T12:06:50.186Z,30.62
2018-04-07T12:07:50.083Z,31.29
2018-04-07T12:08:49.991Z,31.00
2018-04-07T12:09:49.900Z,31.29
2018-04-07T12:10:49.809Z,30.14
2018-04-07T12:11:49.706Z,31.00
2018-04-07T12:12:49.616Z,30.33
2018-04-07T12:13:49.524Z,31.00
2018-04-07T12:14:49.421Z,30.52
2018-04-07T12:15:49.333Z,31.10
2018-04-07T12:16:49.240Z,30.04
2018-04-07T12:17:49.138Z,30.33
2018-04-07T12:18:49.057Z,30.33
2018-04-07T12:19:49.205Z,30.33
2018-04-07T12:20:48.864Z,30.23
2018-04-07T12:21:48.761Z,30.44
2018-04-07T12:22:48.670Z,31.49
2018-04-07T12:23:48.579Z,30.35
2018-04-07T12:24:48.488Z,29.96
2018-04-07T12:25:48.401Z,29.77
2018-04-07T12:26:48.294Z,30.05
2018-04-07T12:27:48.203Z,30.35
2018-04-07T12:28:48.114Z,31.02
2018-04-07T12:29:48.009Z,30.46
2018-04-07T12:30:47.918Z,29.77
2018-04-07T12:31:47.831Z,29.67
2018-04-07T12:32:47.737Z,29.77
2018-04-07T12:33:47.633Z,30.05
2018-04-07T12:34:47.543Z,31.32
2018-04-07T12:35:47.452Z,30.93
2018-04-07T12:36:47.363Z,29.86
2018-04-07T12:37:47.258Z,30.17
2018-04-07T12:38:47.166Z,29.49
2018-04-07T12:39:47.080Z,29.79
2018-04-07T12:40:46.991Z,30.17
2018-04-07T12:41:46.883Z,29.97
2018-04-07T12:42:46.792Z,29.97
2018-04-07T12:43:46.700Z,30.17
2018-04-07T12:44:46.610Z,30.36
2018-04-07T12:45:46.506Z,30.65
2018-04-07T12:46:46.414Z,30.07
2018-04-07T12:47:46.325Z,29.59
2018-04-07T12:48:46.233Z,29.59
2018-04-07T12:49:46.131Z,29.49
2018-04-07T12:50:46.039Z,29.88